createdAt,value
2019-03-09T00:00:54.768Z,83.00
2019-03-09T00:03:24.366Z,83.10
2019-03-09T00:05:53.874Z,83.10
2019-03-09T00:08:23.410Z,83.60
2019-03-09T00:10:53.401Z,83.80
2019-03-09T00:13:22.930Z,83.90
2019-03-09T00:15:52.410Z,84.00
2019-03-09T00:18:21.942Z,83.90
2019-03-09T00:20:51.429Z,83.90
2019-03-09T00:23:25.603Z,84.10
2019-03-09T00:26:08.686Z,84.20
2019-03-09T00:28:56.117Z,84.80
2019-03-09T00:31:27.281Z,84.10
2019-03-09T00:33:56.837Z,84.10
2019-03-09T00:36:28.098Z,84.10
2019-03-09T00:38:57.449Z,84.10
2019-03-09T00:41:27.137Z,84.10
2019-03-09T00:43:56.678Z,84.00
2019-03-09T00:46:26.162Z,84.10
2019-03-09T00:48:55.696Z,84.20
2019-03-09T00:51:25.186Z,84.10
2019-03-09T00:53:54.726Z,84.40
2019-03-09T00:56:25.010Z,84.50
2019-03-09T00:58:54.527Z,85.40
2019-03-09T01:01:24.020Z,84.70
2019-03-09T01:03:55.113Z,84.70
2019-03-09T01:06:30.586Z,84.70
2019-03-09T01:09:00.198Z,84.60
2019-03-09T01:11:29.698Z,84.60
2019-03-09T01:13:59.265Z,84.70
2019-03-09T01:16:28.775Z,84.80
2019-03-09T01:18:59.394Z,84.80
2019-03-09T01:21:28.892Z,84.80
2019-03-09T01:23:58.431Z,84.70
2019-03-09T01:26:27.931Z,84.60
2019-03-09T01:28:57.478Z,84.70
2019-03-09T01:31:27.047Z,84.70
2019-03-09T01:33:56.601Z,84.50
2019-03-09T01:36:26.857Z,84.40
2019-03-09T01:38:56.446Z,84.30
2019-03-09T01:41:26.017Z,84.20
2019-03-09T01:43:57.227Z,84.20
2019-03-09T01:46:26.741Z,84.10
2019-03-09T01:48:56.232Z,84.20
2019-03-09T01:51:28.016Z,84.30
2019-03-09T01:53:57.571Z,84.40
2019-03-09T01:56:27.103Z,84.50
2019-03-09T01:58:56.595Z,84.80
2019-03-09T02:01:26.122Z,85.00
2019-03-09T02:03:55.614Z,85.00
2019-03-09T02:06:25.147Z,85.00
2019-03-09T02:08:54.641Z,85.00
2019-03-09T02:11:24.169Z,85.10
2019-03-09T02:13:53.665Z,85.60
2019-03-09T02:16:23.194Z,85.00
2019-03-09T02:18:52.682Z,85.20
2019-03-09T02:21:23.018Z,85.40
2019-03-09T02:23:52.502Z,85.50
2019-03-09T02:26:22.035Z,85.60
2019-03-09T02:28:51.526Z,85.90
2019-03-09T02:31:21.067Z,86.30
2019-03-09T02:33:50.551Z,86.90
2019-03-09T02:36:20.097Z,87.00
2019-03-09T02:38:51.325Z,87.20
2019-03-09T02:41:20.862Z,87.40
2019-03-09T02:43:50.353Z,88.30
2019-03-09T02:46:19.892Z,87.70
2019-03-09T02:48:49.394Z,88.00
2019-03-09T02:51:18.919Z,88.20
2019-03-09T02:53:48.416Z,88.50
2019-03-09T02:56:17.944Z,88.80
2019-03-09T02:58:47.484Z,89.20
2019-03-09T03:01:34.705Z,89.60
2019-03-09T03:04:04.205Z,89.70
2019-03-09T03:06:33.730Z,90.10
2019-03-09T03:09:04.485Z,90.10
2019-03-09T03:11:37.384Z,90.00
2019-03-09T03:14:06.733Z,89.90
2019-03-09T03:16:36.249Z,90.00
2019-03-09T03:19:05.746Z,90.00
2019-03-09T03:21:35.308Z,90.00
2019-03-09T03:24:04.838Z,90.10
2019-03-09T03:26:34.366Z,90.20
2019-03-09T03:29:03.855Z,90.30
2019-03-09T03:31:33.390Z,90.40
2019-03-09T03:34:02.867Z,90.60
2019-03-09T03:36:32.403Z,90.70
2019-03-09T03:39:01.920Z,90.80
2019-03-09T03:41:33.207Z,90.90
2019-03-09T03:44:02.772Z,91.10
2019-03-09T03:46:32.298Z,91.10
2019-03-09T03:49:03.758Z,91.10
2019-03-09T03:51:38.394Z,91.10
2019-03-09T03:54:07.878Z,91.20
2019-03-09T03:56:37.410Z,91.30
2019-03-09T03:59:06.980Z,91.30
2019-03-09T04:01:36.544Z,91.50
2019-03-09T04:04:06.040Z,91.40
2019-03-09T04:06:35.911Z,91.40
2019-03-09T04:09:06.549Z,91.60
2019-03-09T04:11:37.087Z,91.60
2019-03-09T04:14:06.575Z,91.70
2019-03-09T04:16:36.114Z,91.80
2019-03-09T04:19:05.615Z,91.80
2019-03-09T04:21:35.141Z,91.90
2019-03-09T04:24:04.624Z,92.00
2019-03-09T04:26:34.230Z,92.00
2019-03-09T04:29:03.812Z,92.10
2019-03-09T04:31:34.402Z,92.10
2019-03-09T04:34:03.975Z,92.20
2019-03-09T04:36:33.514Z,92.20
2019-03-09T04:39:04.692Z,92.30
2019-03-09T04:41:34.863Z,92.40
2019-03-09T04:44:04.470Z,92.60
2019-03-09T04:46:33.962Z,92.50
2019-03-09T04:49:03.503Z,92.70
2019-03-09T04:51:32.997Z,92.70
2019-03-09T04:54:02.539Z,92.80
2019-03-09T04:56:32.042Z,92.90
2019-03-09T04:59:03.125Z,93.00
2019-03-09T05:01:32.601Z,93.10
2019-03-09T05:04:19.900Z,93.20
2019-03-09T05:06:49.378Z,93.20
2019-03-09T05:09:38.360Z,93.20
2019-03-09T05:12:07.887Z,93.20
2019-03-09T05:14:37.384Z,93.00
2019-03-09T05:17:06.926Z,92.90
2019-03-09T05:19:38.408Z,92.70
2019-03-09T05:22:07.894Z,92.60
2019-03-09T05:24:37.450Z,92.50
2019-03-09T05:27:08.494Z,92.30
2019-03-09T05:29:39.066Z,92.10
2019-03-09T05:32:08.554Z,92.10
2019-03-09T05:34:38.161Z,91.90
2019-03-09T05:37:07.645Z,91.80
2019-03-09T05:39:37.418Z,91.70
2019-03-09T05:42:07.974Z,91.60
2019-03-09T05:44:37.506Z,91.60
2019-03-09T05:47:07.002Z,91.50
2019-03-09T05:49:36.728Z,91.40
2019-03-09T05:52:23.997Z,91.40
2019-03-09T05:54:53.555Z,91.30
2019-03-09T05:57:23.117Z,91.30
2019-03-09T05:59:53.734Z,91.30
2019-03-09T06:02:23.222Z,91.20
2019-03-09T06:04:52.830Z,91.20
2019-03-09T06:07:22.321Z,91.10
2019-03-09T06:09:51.847Z,91.00
2019-03-09T06:12:21.343Z,91.10
2019-03-09T06:14:50.883Z,91.10
2019-03-09T06:17:20.374Z,91.10
2019-03-09T06:19:49.902Z,91.10
2019-03-09T06:22:19.394Z,91.10
2019-03-09T06:24:50.624Z,91.20
2019-03-09T06:27:20.147Z,91.40
2019-03-09T06:29:51.240Z,91.40
2019-03-09T06:32:35.981Z,91.50
2019-03-09T06:35:14.682Z,91.60
2019-03-09T06:38:01.961Z,91.80
2019-03-09T06:40:31.499Z,92.00
2019-03-09T06:43:00.998Z,92.10
2019-03-09T06:45:30.530Z,92.40
2019-03-09T06:48:00.022Z,92.30
2019-03-09T06:50:29.581Z,92.40
2019-03-09T06:52:59.079Z,92.50
2019-03-09T06:55:29.479Z,92.40
2019-03-09T06:57:58.975Z,92.30
2019-03-09T07:00:40.455Z,92.20
2019-03-09T07:03:09.947Z,91.90
2019-03-09T07:05:39.550Z,90.80
2019-03-09T07:08:09.050Z,91.00
2019-03-09T07:10:38.578Z,88.80
2019-03-09T07:13:08.066Z,99.90
2019-03-09T07:15:39.742Z,92.10
2019-03-09T07:18:11.843Z,88.10
2019-03-09T07:20:41.398Z,88.70
2019-03-09T07:23:11.865Z,87.90
2019-03-09T07:25:41.553Z,87.60
2019-03-09T07:28:12.988Z,87.00
2019-03-09T07:30:42.535Z,87.40
2019-03-09T07:33:12.029Z,86.50
2019-03-09T07:35:41.746Z,86.10
2019-03-09T07:38:11.391Z,85.20
2019-03-09T07:40:42.436Z,83.70
2019-03-09T07:43:12.050Z,84.10
2019-03-09T07:45:41.714Z,81.50
2019-03-09T07:48:11.358Z,79.20
2019-03-09T07:50:40.845Z,81.40
2019-03-09T07:53:10.383Z,86.40
2019-03-09T07:55:39.868Z,83.70
2019-03-09T07:58:09.402Z,82.40
2019-03-09T08:00:39.129Z,83.00
2019-03-09T08:03:08.664Z,87.60
2019-03-09T08:05:38.150Z,81.10
2019-03-09T08:08:07.686Z,81.90
2019-03-09T08:10:37.188Z,81.70
2019-03-09T08:13:06.726Z,82.70
2019-03-09T08:15:36.222Z,83.30
2019-03-09T08:18:05.784Z,92.80
2019-03-09T08:20:35.721Z,84.00
2019-03-09T08:23:05.359Z,84.70
2019-03-09T08:25:34.874Z,89.70
2019-03-09T08:28:04.482Z,85.90
2019-03-09T08:30:35.260Z,82.10
2019-03-09T08:33:07.766Z,83.00
2019-03-09T08:35:37.255Z,81.20
2019-03-09T08:38:06.807Z,76.10
2019-03-09T08:40:36.457Z,75.50
2019-03-09T08:43:06.008Z,90.90
2019-03-09T08:45:35.498Z,78.30
2019-03-09T08:48:05.043Z,78.60
2019-03-09T08:50:34.569Z,77.20
2019-03-09T08:53:04.122Z,78.50
2019-03-09T08:55:33.616Z,80.70
2019-03-09T08:58:03.162Z,80.70
2019-03-09T09:00:35.335Z,81.60
2019-03-09T09:03:05.518Z,82.20
2019-03-09T09:05:35.037Z,82.80
2019-03-09T09:08:04.652Z,83.00
2019-03-09T09:10:34.130Z,82.40
2019-03-09T09:13:03.662Z,82.30
2019-03-09T09:15:33.162Z,80.70
2019-03-09T09:18:02.710Z,80.90
2019-03-09T09:20:33.471Z,80.70
2019-03-09T09:23:03.020Z,79.10
2019-03-09T09:25:35.198Z,85.20
2019-03-09T09:28:04.812Z,76.40
2019-03-09T09:30:34.298Z,77.30
2019-03-09T09:33:03.917Z,77.10
2019-03-09T09:35:33.390Z,78.00
2019-03-09T09:38:02.914Z,78.80
2019-03-09T09:40:32.406Z,79.20
2019-03-09T09:43:01.931Z,78.80
2019-03-09T09:45:31.434Z,82.30
2019-03-09T09:48:00.971Z,82.60
2019-03-09T09:50:33.446Z,83.90
2019-03-09T09:53:02.993Z,85.70
2019-03-09T09:55:32.495Z,87.70
2019-03-09T09:58:03.299Z,89.20
2019-03-09T10:00:32.809Z,94.70
2019-03-09T10:03:02.593Z,91.00
2019-03-09T10:05:32.087Z,92.00
2019-03-09T10:08:04.642Z,91.30
2019-03-09T10:10:34.159Z,92.10
2019-03-09T10:13:03.765Z,92.00
2019-03-09T10:15:33.790Z,91.90
2019-03-09T10:18:03.348Z,92.30
2019-03-09T10:20:35.670Z,92.20
2019-03-09T10:23:05.222Z,92.50
2019-03-09T10:25:34.710Z,93.00
2019-03-09T10:28:04.246Z,92.20
2019-03-09T10:30:33.790Z,92.70
2019-03-09T10:33:03.590Z,92.90
2019-03-09T10:35:34.092Z,92.80
2019-03-09T10:38:03.686Z,92.90
2019-03-09T10:40:34.884Z,93.20
2019-03-09T10:43:05.964Z,92.90
2019-03-09T10:45:35.782Z,95.60
2019-03-09T10:50:34.412Z,94.60
2019-03-09T10:53:04.162Z,93.30
2019-03-09T10:55:34.931Z,93.80
2019-03-09T10:58:04.840Z,93.90
2019-03-09T11:00:39.950Z,93.60
2019-03-09T11:03:09.798Z,94.00
2019-03-09T11:05:39.824Z,93.60
2019-03-09T11:08:09.383Z,94.00
2019-03-09T11:10:38.914Z,94.10
2019-03-09T11:13:08.473Z,94.70
2019-03-09T11:15:38.070Z,94.80
2019-03-09T11:18:07.554Z,94.60
2019-03-09T11:20:37.104Z,94.70
2019-03-09T11:23:06.600Z,94.80
2019-03-09T11:25:36.149Z,94.90
2019-03-09T11:28:13.746Z,95.20
2019-03-09T11:30:43.312Z,94.70
2019-03-09T11:33:12.902Z,95.10
2019-03-09T11:35:42.432Z,95.30
2019-03-09T11:38:11.922Z,94.70
2019-03-09T11:40:41.641Z,95.30
2019-03-09T11:43:11.159Z,95.20
2019-03-09T11:45:40.982Z,95.20
2019-03-09T11:48:10.483Z,95.20
2019-03-09T11:50:40.446Z,95.30
2019-03-09T11:53:09.962Z,95.00
2019-03-09T11:55:39.581Z,95.00
2019-03-09T11:58:09.062Z,95.10
2019-03-09T12:00:40.242Z,95.10
2019-03-09T12:03:09.803Z,95.10
2019-03-09T12:05:39.346Z,94.90
2019-03-09T12:08:11.920Z,95.00
2019-03-09T12:10:41.458Z,94.80
2019-03-09T12:13:10.960Z,94.70
2019-03-09T12:15:40.826Z,94.60
2019-03-09T12:18:10.314Z,94.50
2019-03-09T12:20:39.842Z,94.40
2019-03-09T12:23:17.107Z,94.50
2019-03-09T12:25:46.948Z,94.30
2019-03-09T12:28:33.674Z,94.40
2019-03-09T12:31:03.230Z,94.00
2019-03-09T12:33:32.714Z,93.70
2019-03-09T12:36:02.268Z,93.20
2019-03-09T12:38:31.766Z,93.30
2019-03-09T12:41:02.276Z,93.20
2019-03-09T12:43:31.758Z,93.50
2019-03-09T12:46:01.286Z,90.00
2019-03-09T12:48:31.742Z,84.50
2019-03-09T12:51:01.283Z,80.50
2019-03-09T12:53:30.843Z,74.00
2019-03-09T12:56:00.373Z,73.30
2019-03-09T12:58:29.862Z,75.30
2019-03-09T13:00:59.403Z,79.40
2019-03-09T13:03:28.888Z,82.20
2019-03-09T13:05:58.416Z,85.90
2019-03-09T13:10:59.532Z,92.70
2019-03-09T13:13:29.663Z,90.80
2019-03-09T13:15:59.218Z,90.00
2019-03-09T13:18:28.723Z,88.70
2019-03-09T13:20:58.331Z,89.00
2019-03-09T13:23:28.778Z,90.00
2019-03-09T13:25:58.310Z,87.60
2019-03-09T13:28:27.810Z,84.30
2019-03-09T13:30:57.343Z,86.10
2019-03-09T13:33:26.843Z,83.40
2019-03-09T13:35:56.370Z,80.90
2019-03-09T13:38:28.584Z,80.70
2019-03-09T13:40:58.139Z,81.10
2019-03-09T13:43:27.591Z,79.00
2019-03-09T13:45:57.122Z,75.40
2019-03-09T13:48:26.618Z,70.80
2019-03-09T13:50:56.155Z,67.30
2019-03-09T13:53:25.850Z,65.80
2019-03-09T13:55:55.406Z,65.40
2019-03-09T13:58:26.003Z,66.10
2019-03-09T14:00:55.608Z,62.40
2019-03-09T14:03:25.165Z,59.40
2019-03-09T14:05:54.694Z,73.30
2019-03-09T14:08:24.184Z,64.20
2019-03-09T14:10:53.726Z,62.90
2019-03-09T14:13:23.438Z,62.80
2019-03-09T14:15:53.299Z,62.90
2019-03-09T14:18:22.818Z,59.70
2019-03-09T14:20:52.624Z,59.10
2019-03-09T14:23:22.150Z,76.50
2019-03-09T14:25:51.643Z,61.00
2019-03-09T14:28:21.182Z,62.10
2019-03-09T14:30:50.671Z,63.40
2019-03-09T14:33:20.795Z,67.90
2019-03-09T14:38:20.702Z,76.30
2019-03-09T14:40:50.206Z,70.10
2019-03-09T14:43:19.763Z,68.90
2019-03-09T14:45:49.274Z,69.90
2019-03-09T14:48:18.814Z,71.80
2019-03-09T14:50:48.310Z,71.70
2019-03-09T14:53:17.919Z,71.90
2019-03-09T14:55:47.422Z,72.30
2019-03-09T14:58:16.977Z,74.60
2019-03-09T15:00:46.467Z,74.70
2019-03-09T15:03:16.187Z,76.00
2019-03-09T15:05:46.092Z,77.30
2019-03-09T15:08:15.618Z,77.60
2019-03-09T15:10:45.113Z,77.70
2019-03-09T15:13:14.675Z,78.40
2019-03-09T15:15:44.144Z,78.30
2019-03-09T15:18:14.255Z,79.10
2019-03-09T15:20:43.763Z,80.10
2019-03-09T15:23:13.301Z,82.80
2019-03-09T15:25:44.242Z,85.80
2019-03-09T15:28:13.911Z,88.40
2019-03-09T15:30:44.175Z,88.90
2019-03-09T15:33:13.875Z,89.60
2019-03-09T15:35:43.374Z,90.30
2019-03-09T15:38:12.927Z,91.30
2019-03-09T15:40:42.415Z,91.60
2019-03-09T15:43:12.153Z,92.10
2019-03-09T15:45:41.651Z,92.40
2019-03-09T15:48:11.207Z,92.80
2019-03-09T15:50:40.710Z,93.00
2019-03-09T15:53:10.250Z,93.30
2019-03-09T15:55:39.763Z,93.50
2019-03-09T15:58:09.358Z,93.40
2019-03-09T16:00:38.922Z,93.60
2019-03-09T16:03:08.463Z,94.00
2019-03-09T16:05:37.950Z,93.90
2019-03-09T16:08:07.563Z,93.50
2019-03-09T16:10:37.056Z,93.40
2019-03-09T16:13:06.703Z,93.60
2019-03-09T16:15:36.166Z,93.70
2019-03-09T16:18:05.750Z,94.20
2019-03-09T16:20:35.246Z,94.50
2019-03-09T16:23:04.778Z,94.80
2019-03-09T16:25:34.287Z,94.90
2019-03-09T16:28:03.834Z,94.90
2019-03-09T16:30:33.390Z,95.30
2019-03-09T16:33:02.939Z,95.30
2019-03-09T16:35:32.431Z,95.40
2019-03-09T16:38:03.643Z,95.80
2019-03-09T16:40:40.357Z,95.70
2019-03-09T16:43:04.411Z,95.60
2019-03-09T16:45:35.423Z,95.40
2019-03-09T16:48:05.319Z,95.10
2019-03-09T16:50:34.898Z,94.70
2019-03-09T16:53:04.430Z,94.60
2019-03-09T16:55:33.926Z,93.40
2019-03-09T16:58:03.603Z,93.70
2019-03-09T17:00:33.106Z,93.70
2019-03-09T17:03:04.314Z,93.60
2019-03-09T17:05:33.806Z,93.70
2019-03-09T17:08:03.390Z,93.70
2019-03-09T17:10:32.894Z,93.80
2019-03-09T17:13:02.700Z,93.90
2019-03-09T17:15:32.245Z,94.00
2019-03-09T17:18:02.708Z,94.00
2019-03-09T17:20:33.883Z,94.10
2019-03-09T17:23:03.386Z,94.20
2019-03-09T17:25:32.916Z,94.50
2019-03-09T17:28:02.404Z,94.50
2019-03-09T17:30:31.950Z,94.80
2019-03-09T17:33:01.446Z,94.80
2019-03-09T17:35:33.710Z,95.00
2019-03-09T17:38:04.766Z,95.40
2019-03-09T17:40:34.311Z,95.60
2019-03-09T17:43:04.108Z,95.60
2019-03-09T17:45:33.660Z,95.40
2019-03-09T17:48:04.686Z,95.50
2019-03-09T17:50:34.221Z,95.90
2019-03-09T17:53:04.707Z,95.80
2019-03-09T17:55:34.254Z,95.80
2019-03-09T17:58:03.745Z,96.00
2019-03-09T18:00:42.550Z,95.90
2019-03-09T18:03:06.206Z,96.00
2019-03-09T18:05:35.749Z,96.20
2019-03-09T18:08:05.229Z,96.10
2019-03-09T18:10:40.855Z,96.20
2019-03-09T18:13:10.895Z,96.40
2019-03-09T18:15:41.830Z,96.20
2019-03-09T18:18:11.326Z,96.20
2019-03-09T18:20:40.868Z,96.20
2019-03-09T18:23:10.354Z,95.90
2019-03-09T18:25:40.754Z,95.60
2019-03-09T18:28:10.242Z,95.20
2019-03-09T18:30:39.927Z,94.70
2019-03-09T18:33:09.511Z,94.20
2019-03-09T18:35:41.703Z,94.10
2019-03-09T18:38:11.126Z,93.80
2019-03-09T18:40:40.659Z,93.70
2019-03-09T18:43:10.221Z,93.50
2019-03-09T18:45:41.587Z,93.40
2019-03-09T18:48:11.091Z,93.20
2019-03-09T18:50:40.630Z,93.00
2019-03-09T18:53:10.190Z,93.00
2019-03-09T18:55:39.722Z,93.20
2019-03-09T18:58:09.227Z,92.70
2019-03-09T19:00:38.754Z,92.60
2019-03-09T19:03:08.407Z,92.60
2019-03-09T19:05:40.778Z,92.40
2019-03-09T19:08:10.274Z,92.30
2019-03-09T19:10:39.852Z,92.20
2019-03-09T19:13:09.418Z,92.10
2019-03-09T19:15:38.950Z,91.90
2019-03-09T19:18:08.442Z,91.90
2019-03-09T19:20:38.640Z,91.80
2019-03-09T19:23:08.119Z,91.90
2019-03-09T19:25:37.656Z,91.90
2019-03-09T19:28:07.154Z,91.90
2019-03-09T19:30:36.690Z,92.00
2019-03-09T19:33:07.491Z,91.80
2019-03-09T19:35:37.033Z,91.80
2019-03-09T19:38:06.595Z,91.90
2019-03-09T19:40:36.265Z,92.00
2019-03-09T19:43:05.783Z,92.00
2019-03-09T19:45:35.310Z,92.20
2019-03-09T19:48:04.801Z,92.20
2019-03-09T19:50:34.323Z,92.30
2019-03-09T19:53:03.879Z,92.30
2019-03-09T19:55:33.478Z,92.40
2019-03-09T19:58:02.976Z,92.50
2019-03-09T20:00:32.746Z,92.40
2019-03-09T20:03:02.440Z,92.40
2019-03-09T20:05:31.971Z,92.50
2019-03-09T20:08:03.100Z,92.60
2019-03-09T20:10:33.918Z,92.60
2019-03-09T20:13:03.414Z,92.60
2019-03-09T20:15:32.942Z,92.60
2019-03-09T20:18:02.438Z,92.70
2019-03-09T20:20:31.979Z,92.70
2019-03-09T20:23:01.455Z,92.80
2019-03-09T20:25:31.081Z,92.90
2019-03-09T20:28:00.567Z,93.00
2019-03-09T20:30:30.102Z,93.00
2019-03-09T20:32:59.716Z,93.10
2019-03-09T20:35:29.230Z,93.20
2019-03-09T20:37:58.835Z,93.30
2019-03-09T20:40:28.330Z,93.30
2019-03-09T20:42:57.874Z,93.30
2019-03-09T20:45:27.384Z,93.20
2019-03-09T20:47:56.890Z,93.10
2019-03-09T20:50:26.386Z,93.00
2019-03-09T20:52:55.918Z,92.90
2019-03-09T20:55:25.409Z,92.80
2019-03-09T20:57:54.948Z,92.80
2019-03-09T21:00:24.479Z,92.80
2019-03-09T21:02:54.103Z,92.80
2019-03-09T21:05:23.596Z,92.80
2019-03-09T21:07:53.124Z,92.80
2019-03-09T21:10:22.630Z,92.80
2019-03-09T21:12:59.768Z,92.80
2019-03-09T21:15:29.348Z,92.80
2019-03-09T21:17:58.918Z,92.80
2019-03-09T21:20:28.482Z,92.80
2019-03-09T21:22:58.088Z,92.80
2019-03-09T21:25:27.641Z,92.80
2019-03-09T21:27:57.178Z,92.80
2019-03-09T21:30:26.674Z,92.80
2019-03-09T21:32:56.287Z,92.90
2019-03-09T21:35:25.820Z,93.00
2019-03-09T21:37:55.387Z,93.00
2019-03-09T21:40:24.874Z,93.20
2019-03-09T21:42:54.419Z,93.40
2019-03-09T21:45:23.911Z,93.50
2019-03-09T21:47:54.502Z,93.90
2019-03-09T21:50:24.777Z,94.10
2019-03-09T21:52:54.352Z,94.50
2019-03-09T21:55:23.842Z,94.70
2019-03-09T21:57:54.923Z,94.90
2019-03-09T22:00:24.458Z,95.00
2019-03-09T22:02:53.993Z,95.10
2019-03-09T22:05:23.551Z,95.20
2019-03-09T22:07:53.104Z,95.10
2019-03-09T22:10:22.630Z,95.20
2019-03-09T22:12:55.623Z,95.30
2019-03-09T22:15:25.150Z,95.30
2019-03-09T22:17:54.686Z,95.50
2019-03-09T22:20:24.187Z,95.30
2019-03-09T22:22:53.726Z,95.40
2019-03-09T22:25:23.225Z,95.40
2019-03-09T22:27:52.774Z,95.40
2019-03-09T22:30:22.771Z,95.40
2019-03-09T22:32:53.946Z,95.50
2019-03-09T22:35:23.438Z,95.50
2019-03-09T22:37:52.970Z,95.60
2019-03-09T22:40:22.454Z,95.70
2019-03-09T22:42:52.011Z,95.80
2019-03-09T22:45:21.502Z,95.40
2019-03-09T22:47:51.037Z,95.50
2019-03-09T22:50:22.820Z,95.50
2019-03-09T22:52:52.358Z,95.40
2019-03-09T22:55:21.848Z,95.30
2019-03-09T22:57:52.787Z,95.40
2019-03-09T23:00:26.010Z,95.40
2019-03-09T23:02:57.374Z,95.40
2019-03-09T23:05:26.884Z,95.40
2019-03-09T23:07:56.407Z,95.30
2019-03-09T23:10:27.234Z,95.40
2019-03-09T23:12:56.771Z,95.60
2019-03-09T23:15:27.895Z,95.60
2019-03-09T23:18:00.343Z,95.60
2019-03-09T23:20:29.847Z,95.70
2019-03-09T23:22:59.382Z,95.70
2019-03-09T23:25:28.881Z,95.80
2019-03-09T23:27:58.411Z,95.80
2019-03-09T23:30:27.942Z,95.90
2019-03-09T23:32:57.497Z,96.20
2019-03-09T23:35:27.054Z,96.00
2019-03-09T23:38:00.139Z,96.00
2019-03-09T23:40:29.628Z,96.00
2019-03-09T23:42:59.230Z,96.00
2019-03-09T23:45:29.208Z,96.00
2019-03-09T23:47:58.791Z,96.00
2019-03-09T23:50:28.321Z,96.10
2019-03-09T23:52:57.870Z,96.10
2019-03-09T23:55:27.553Z,96.20
2019-03-09T23:57:57.106Z,96.30
